createdAt,value
2018-02-05T00:02:21.062Z,86.54
2018-02-05T00:04:48.780Z,86.30
2018-02-05T00:07:17.632Z,86.18
2018-02-05T00:09:45.444Z,86.07
2018-02-05T00:12:13.214Z,86.11
2018-02-05T00:14:40.886Z,86.22
2018-02-05T00:17:08.642Z,86.53
2018-02-05T00:19:36.415Z,86.81
2018-02-05T00:22:04.113Z,86.62
2018-02-05T00:24:32.344Z,86.95
2018-02-05T00:27:00.149Z,86.97
2018-02-05T00:29:27.830Z,87.09
2018-02-05T00:31:55.637Z,87.02
2018-02-05T00:34:23.550Z,86.92
2018-02-05T00:36:51.571Z,87.09
2018-02-05T00:39:19.631Z,86.91
2018-02-05T00:41:47.614Z,86.84
2018-02-05T00:44:15.686Z,86.84
2018-02-05T00:46:44.335Z,86.58
2018-02-05T00:49:12.204Z,86.30
2018-02-05T00:51:40.310Z,86.15
2018-02-05T00:54:08.381Z,86.14
2018-02-05T00:56:36.426Z,86.08
2018-02-05T00:59:04.526Z,86.42
2018-02-05T01:01:33.319Z,86.74
2018-02-05T01:04:01.755Z,86.71
2018-02-05T01:06:30.188Z,85.99
2018-02-05T01:08:58.251Z,85.86
2018-02-05T01:11:26.114Z,85.65
2018-02-05T01:13:54.189Z,85.93
2018-02-05T01:16:22.088Z,85.26
2018-02-05T01:18:50.079Z,84.85
2018-02-05T01:21:18.068Z,84.55
2018-02-05T01:23:46.573Z,84.33
2018-02-05T01:26:18.327Z,83.47
2018-02-05T01:28:46.747Z,83.96
2018-02-05T01:31:15.963Z,83.91
2018-02-05T01:33:44.031Z,84.88
2018-02-05T01:36:11.895Z,84.85
2018-02-05T01:38:39.739Z,86.04
2018-02-05T01:41:11.474Z,86.23
2018-02-05T01:43:40.061Z,85.90
2018-02-05T01:46:08.132Z,86.36
2018-02-05T01:48:38.883Z,86.40
2018-02-05T01:51:07.143Z,86.73
2018-02-05T01:53:36.035Z,87.26
2018-02-05T01:56:03.978Z,86.39
2018-02-05T01:58:33.071Z,86.60
2018-02-05T02:01:03.366Z,85.93
2018-02-05T02:03:32.631Z,85.38
2018-02-05T02:06:12.468Z,85.36
2018-02-05T02:11:19.100Z,85.19
2018-02-05T02:13:49.466Z,85.07
2018-02-05T02:16:32.332Z,85.19
2018-02-05T02:19:02.275Z,84.63
2018-02-05T02:21:38.177Z,84.64
2018-02-05T02:24:19.355Z,84.79
2018-02-05T02:27:09.988Z,84.95
2018-02-05T02:30:17.563Z,85.15
2018-02-05T02:32:56.903Z,84.77
2018-02-05T02:35:27.820Z,84.60
2018-02-05T04:15:11.072Z,84.41
2018-02-05T04:26:45.603Z,85.13
2018-02-05T04:45:10.476Z,85.72
2018-02-05T04:47:48.516Z,85.90
2018-02-05T05:20:11.386Z,85.44
2018-02-05T05:22:47.840Z,85.32
2018-02-05T05:25:16.936Z,85.06
2018-02-05T05:27:58.564Z,85.03
2018-02-05T05:33:43.161Z,85.87
2018-02-05T05:36:19.567Z,86.29
2018-02-05T05:41:47.728Z,85.65
2018-02-05T05:44:16.557Z,85.55
2018-02-05T05:46:55.138Z,84.76
2018-02-05T05:49:23.153Z,84.80
2018-02-05T05:52:07.169Z,85.07
2018-02-05T05:54:37.953Z,86.43
2018-02-05T05:57:20.745Z,87.04
2018-02-05T06:00:11.492Z,86.13
2018-02-05T06:05:38.797Z,86.01
2018-02-05T06:08:21.786Z,85.95
2018-02-05T06:11:03.437Z,85.62
2018-02-05T06:13:33.073Z,86.00
2018-02-05T06:16:20.161Z,85.99
2018-02-05T06:23:23.117Z,86.09
2018-02-05T06:26:00.874Z,85.86
2018-02-05T06:32:58.936Z,86.03
2018-02-05T06:35:32.089Z,85.74
2018-02-05T06:38:02.177Z,85.45
2018-02-05T06:40:30.064Z,85.78
2018-02-05T06:43:03.018Z,86.49
2018-02-05T06:45:40.772Z,86.87
2018-02-05T06:50:59.006Z,86.11
2018-02-05T06:57:10.927Z,85.66
2018-02-05T06:59:49.604Z,85.38
2018-02-05T07:05:13.014Z,86.42
2018-02-05T07:07:49.874Z,86.53
2018-02-05T07:10:22.179Z,85.07
2018-02-05T07:12:58.232Z,85.61
2018-02-05T07:18:18.546Z,85.42
2018-02-05T07:20:53.377Z,85.55
2018-02-05T07:23:22.025Z,86.02
2018-02-05T07:25:52.591Z,85.71
2018-02-05T07:28:26.777Z,84.74
2018-02-05T07:33:57.778Z,84.20
2018-02-05T07:36:34.570Z,84.61
2018-02-05T07:39:14.286Z,84.65
2018-02-05T07:46:14.542Z,84.28
2018-02-05T07:48:52.670Z,83.14
2018-02-05T07:51:24.047Z,82.51
2018-02-05T07:53:53.519Z,82.34
2018-02-05T07:56:23.441Z,82.12
2018-02-05T07:58:55.715Z,81.84
2018-02-05T08:01:28.036Z,81.63
2018-02-05T08:03:57.222Z,81.52
2018-02-05T08:06:27.541Z,81.78
2018-02-05T08:09:05.091Z,81.13
2018-02-05T08:11:50.226Z,80.14
2018-02-05T08:14:22.523Z,80.05
2018-02-05T08:16:55.668Z,79.63
2018-02-05T08:19:47.703Z,78.83
2018-02-05T08:22:27.423Z,79.70
2018-02-05T08:25:00.008Z,78.37
2018-02-05T08:27:30.975Z,77.63
2018-02-05T08:30:01.217Z,77.58
2018-02-05T08:32:32.559Z,78.15
2018-02-05T08:37:37.424Z,78.66
2018-02-05T08:40:05.590Z,79.15
2018-02-05T08:42:33.908Z,79.30
2018-02-05T08:45:08.644Z,78.90
2018-02-05T08:47:37.522Z,77.45
2018-02-05T08:50:06.495Z,77.67
2018-02-05T08:52:34.574Z,79.68
2018-02-05T08:55:03.459Z,77.60
2018-02-05T08:57:31.340Z,75.17
2018-02-05T08:59:59.602Z,75.82
2018-02-05T09:02:28.561Z,75.14
2018-02-05T09:04:57.134Z,75.31
2018-02-05T09:07:25.148Z,74.60
2018-02-05T09:09:53.228Z,75.08
2018-02-05T09:12:20.976Z,74.76
2018-02-05T09:14:48.962Z,73.24
2018-02-05T09:17:17.237Z,73.25
2018-02-05T09:19:45.261Z,72.87
2018-02-05T09:22:13.001Z,72.10
2018-02-05T09:24:40.873Z,71.76
2018-02-05T09:27:08.837Z,69.45
2018-02-05T09:29:36.832Z,69.50
2018-02-05T09:32:04.811Z,68.07
2018-02-05T09:34:32.663Z,67.46
2018-02-05T09:37:00.532Z,66.88
2018-02-05T09:39:28.544Z,64.07
2018-02-05T09:41:56.564Z,62.82
2018-02-05T09:44:24.637Z,60.32
2018-02-05T09:46:52.476Z,60.88
2018-02-05T09:49:20.631Z,59.66
2018-02-05T09:51:48.522Z,58.66
2018-02-05T09:54:16.369Z,60.42
2018-02-05T09:56:45.897Z,59.10
2018-02-05T09:59:13.933Z,57.77
2018-02-05T10:01:43.214Z,57.26
2018-02-05T10:04:11.136Z,57.13
2018-02-05T10:06:39.592Z,55.26
2018-02-05T10:09:08.080Z,54.01
2018-02-05T10:11:36.021Z,54.63
2018-02-05T10:14:03.859Z,53.05
2018-02-05T10:16:31.990Z,51.08
2018-02-05T10:19:00.043Z,52.36
2018-02-05T10:21:28.689Z,50.03
2018-02-05T10:23:56.879Z,52.25
2018-02-05T10:26:24.745Z,55.48
2018-02-05T10:28:52.751Z,58.31
2018-02-05T10:31:21.028Z,56.04
2018-02-05T10:33:49.098Z,52.88
2018-02-05T10:36:17.170Z,52.29
2018-02-05T10:38:45.226Z,51.37
2018-02-05T10:41:13.329Z,53.97
2018-02-05T10:43:41.205Z,57.59
2018-02-05T10:46:09.066Z,57.57
2018-02-05T10:48:37.025Z,57.16
2018-02-05T10:51:04.940Z,55.28
2018-02-05T10:53:33.034Z,57.32
2018-02-05T10:56:01.096Z,52.85
2018-02-05T10:58:29.204Z,51.61
2018-02-05T11:00:57.958Z,52.43
2018-02-05T11:03:25.824Z,53.08
2018-02-05T11:05:53.829Z,53.29
2018-02-05T11:08:21.904Z,54.76
2018-02-05T11:10:50.251Z,53.36
2018-02-05T11:13:18.661Z,53.93
2018-02-05T11:15:47.968Z,53.27
2018-02-05T11:18:16.001Z,53.76
2018-02-05T11:20:43.771Z,53.09
2018-02-05T11:23:11.612Z,53.13
2018-02-05T11:25:39.638Z,52.75
2018-02-05T11:28:07.571Z,53.44
2018-02-05T11:30:35.661Z,54.44
2018-02-05T11:33:03.725Z,52.31
2018-02-05T11:35:31.820Z,52.27
2018-02-05T11:37:59.842Z,52.11
2018-02-05T11:40:28.224Z,52.26
2018-02-05T11:42:56.226Z,52.35
2018-02-05T11:45:24.293Z,51.30
2018-02-05T11:47:52.385Z,51.40
2018-02-05T11:50:20.661Z,52.94
2018-02-05T11:52:48.673Z,53.22
2018-02-05T11:55:17.410Z,51.63
2018-02-05T11:57:45.472Z,54.00
2018-02-05T12:00:13.479Z,54.00
2018-02-05T12:02:42.558Z,55.79
2018-02-05T12:05:10.705Z,52.02
2018-02-05T12:07:38.870Z,54.00
2018-02-05T12:10:06.993Z,54.62
2018-02-05T12:12:35.048Z,54.17
2018-02-05T12:15:03.120Z,54.28
2018-02-05T12:17:31.136Z,52.75
2018-02-05T12:19:59.034Z,52.97
2018-02-05T12:22:27.124Z,53.40
2018-02-05T12:24:55.392Z,51.08
2018-02-05T12:27:23.488Z,50.22
2018-02-05T12:29:52.369Z,52.58
2018-02-05T12:32:20.390Z,52.39
2018-02-05T12:34:48.516Z,50.41
2018-02-05T12:37:16.523Z,51.71
2018-02-05T12:39:44.640Z,53.06
2018-02-05T12:42:12.721Z,52.99
2018-02-05T12:44:40.650Z,53.30
2018-02-05T12:47:08.774Z,51.67
2018-02-05T12:49:36.660Z,51.98
2018-02-05T12:52:04.776Z,49.82
2018-02-05T12:54:33.473Z,51.02
2018-02-05T12:57:01.560Z,52.40
2018-02-05T12:59:29.752Z,51.37
2018-02-05T13:02:08.184Z,48.03
2018-02-05T13:04:41.835Z,48.50
2018-02-05T13:07:09.991Z,49.82
2018-02-05T13:09:38.828Z,51.24
2018-02-05T13:12:07.164Z,51.43
2018-02-05T13:14:35.174Z,49.69
2018-02-05T13:17:03.720Z,48.85
2018-02-05T13:19:31.743Z,52.79
2018-02-05T13:22:00.619Z,51.54
2018-02-05T13:24:28.647Z,53.06
2018-02-05T13:26:56.388Z,53.85
2018-02-05T13:29:24.150Z,51.65
2018-02-05T13:31:52.248Z,53.70
2018-02-05T13:34:20.541Z,54.57
2018-02-05T13:36:48.644Z,52.78
2018-02-05T13:39:16.698Z,54.49
2018-02-05T13:41:44.872Z,54.09
2018-02-05T13:44:13.059Z,54.19
2018-02-05T13:46:41.337Z,54.43
2018-02-05T13:49:09.317Z,54.02
2018-02-05T13:51:37.433Z,55.14
2018-02-05T13:54:05.550Z,54.44
2018-02-05T13:56:33.436Z,55.16
2018-02-05T13:59:01.483Z,54.12
2018-02-05T14:01:31.714Z,54.67
2018-02-05T14:03:59.543Z,55.39
2018-02-05T14:06:27.558Z,56.32
2018-02-05T14:08:56.225Z,55.87
2018-02-05T14:11:24.413Z,55.55
2018-02-05T14:13:52.339Z,56.49
2018-02-05T14:16:20.305Z,55.81
2018-02-05T14:18:48.628Z,54.99
2018-02-05T14:21:17.782Z,55.61
2018-02-05T14:23:45.680Z,57.56
2018-02-05T14:26:13.471Z,55.28
2018-02-05T14:28:41.491Z,56.70
2018-02-05T14:31:09.582Z,56.33
2018-02-05T14:33:37.676Z,56.40
2018-02-05T14:36:06.977Z,56.78
2018-02-05T14:38:35.455Z,58.42
2018-02-05T14:41:03.401Z,57.94
2018-02-05T14:43:31.818Z,58.95
2018-02-05T14:45:59.736Z,60.36
2018-02-05T14:48:27.901Z,61.04
2018-02-05T14:50:56.030Z,62.12
2018-02-05T14:53:23.887Z,63.75
2018-02-05T14:55:52.677Z,64.77
2018-02-05T14:58:20.751Z,64.93
2018-02-05T15:00:48.664Z,65.25
2018-02-05T15:03:16.893Z,65.80
2018-02-05T15:05:44.662Z,66.06
2018-02-05T15:08:12.627Z,66.67
2018-02-05T15:10:40.552Z,67.10
2018-02-05T15:13:08.446Z,67.44
2018-02-05T15:15:36.290Z,67.23
2018-02-05T15:18:04.879Z,67.89
2018-02-05T15:20:32.770Z,69.96
2018-02-05T15:23:01.444Z,70.52
2018-02-05T15:25:30.140Z,70.70
2018-02-05T15:27:58.226Z,70.97
2018-02-05T15:30:26.170Z,70.73
2018-02-05T15:32:54.269Z,71.51
2018-02-05T15:35:22.277Z,71.28
2018-02-05T15:37:50.847Z,71.34
2018-02-05T15:40:20.333Z,72.45
2018-02-05T15:42:48.349Z,72.42
2018-02-05T15:45:16.971Z,72.06
2018-02-05T15:47:45.259Z,72.70
2018-02-05T15:50:13.109Z,71.45
2018-02-05T15:52:40.845Z,72.07
2018-02-05T15:55:08.975Z,72.20
2018-02-05T15:57:36.767Z,73.59
2018-02-05T16:00:04.668Z,75.42
2018-02-05T16:02:32.368Z,75.26
2018-02-05T16:05:01.120Z,75.38
2018-02-05T16:07:28.868Z,75.01
2018-02-05T16:09:56.562Z,74.62
2018-02-05T16:12:24.433Z,73.28
2018-02-05T16:14:52.206Z,75.02
2018-02-05T16:17:19.910Z,75.44
2018-02-05T16:19:47.677Z,74.36
2018-02-05T16:22:15.573Z,75.20
2018-02-05T16:24:43.450Z,74.27
2018-02-05T16:27:11.273Z,73.58
2018-02-05T16:29:39.143Z,74.07
2018-02-05T16:32:07.096Z,74.85
2018-02-05T16:34:35.780Z,73.97
2018-02-05T16:37:03.498Z,75.25
2018-02-05T16:39:31.324Z,76.23
2018-02-05T16:41:59.159Z,76.12
2018-02-05T16:44:27.176Z,76.13
2018-02-05T16:46:55.013Z,75.36
2018-02-05T16:49:24.087Z,76.03
2018-02-05T16:51:54.192Z,75.71
2018-02-05T16:54:23.107Z,76.23
2018-02-05T16:56:51.668Z,77.29
2018-02-05T16:59:20.973Z,78.44
2018-02-05T17:01:50.053Z,78.88
2018-02-05T17:04:18.130Z,80.69
2018-02-05T17:06:46.156Z,80.96
2018-02-05T17:09:15.415Z,80.30
2018-02-05T17:11:43.594Z,79.32
2018-02-05T17:14:11.285Z,78.85
2018-02-05T17:16:39.140Z,79.25
2018-02-05T17:19:07.208Z,79.61
2018-02-05T17:21:34.989Z,80.21
2018-02-05T17:24:02.890Z,80.49
2018-02-05T17:26:32.180Z,79.77
2018-02-05T17:29:00.053Z,79.39
2018-02-05T17:31:27.861Z,79.93
2018-02-05T17:33:55.709Z,80.23
2018-02-05T17:36:23.590Z,79.72
2018-02-05T17:38:51.496Z,80.02
2018-02-05T17:41:19.505Z,81.05
2018-02-05T17:43:47.586Z,81.06
2018-02-05T17:46:16.397Z,81.15
2018-02-05T17:48:44.375Z,81.51
2018-02-05T17:51:16.684Z,81.81
2018-02-05T17:53:44.912Z,81.00
2018-02-05T17:56:12.903Z,80.72
2018-02-05T17:58:41.801Z,80.73
2018-02-05T18:01:11.691Z,80.02
2018-02-05T18:03:40.003Z,80.91
2018-02-05T18:06:07.820Z,81.66
2018-02-05T18:08:37.089Z,81.66
2018-02-05T18:11:05.966Z,81.63
2018-02-05T18:13:34.877Z,81.67
2018-02-05T18:16:03.103Z,81.88
2018-02-05T18:18:31.142Z,81.57
2018-02-05T18:21:00.093Z,81.71
2018-02-05T18:23:27.855Z,81.31
2018-02-05T18:25:55.672Z,81.51
2018-02-05T18:28:23.556Z,82.65
2018-02-05T18:30:51.400Z,82.90
2018-02-05T18:33:19.249Z,82.67
2018-02-05T18:35:47.427Z,82.66
2018-02-05T18:38:15.204Z,82.90
2018-02-05T18:40:42.962Z,83.55
2018-02-05T18:43:10.843Z,82.92
2018-02-05T18:45:38.561Z,82.18
2018-02-05T18:48:06.387Z,81.64
2018-02-05T18:50:34.168Z,81.98
2018-02-05T18:53:27.773Z,82.58
2018-02-05T18:55:56.992Z,83.23
2018-02-05T18:58:25.027Z,83.16
2018-02-05T19:00:53.781Z,83.77
2018-02-05T19:03:22.840Z,83.98
2018-02-05T19:05:54.069Z,83.79
2018-02-05T19:08:22.630Z,83.44
2018-02-05T19:10:50.572Z,83.78
2018-02-05T19:13:18.543Z,84.00
2018-02-05T19:15:46.818Z,83.62
2018-02-05T19:18:15.091Z,83.93
2018-02-05T19:20:43.169Z,84.41
2018-02-05T19:23:11.157Z,85.59
2018-02-05T19:25:41.138Z,84.68
2018-02-05T19:28:10.041Z,83.90
2018-02-05T19:30:39.581Z,83.76
2018-02-05T19:33:07.745Z,84.46
2018-02-05T19:35:35.476Z,84.56
2018-02-05T19:38:03.451Z,85.83
2018-02-05T19:40:32.599Z,85.19
2018-02-05T19:43:01.449Z,84.50
2018-02-05T19:45:30.478Z,84.37
2018-02-05T19:47:58.349Z,84.77
2018-02-05T19:50:27.382Z,84.90
2018-02-05T19:52:55.138Z,84.53
2018-02-05T19:55:23.640Z,84.69
2018-02-05T19:57:51.572Z,85.39
2018-02-05T20:00:20.700Z,85.25
2018-02-05T20:02:48.525Z,85.44
2018-02-05T20:05:16.692Z,85.33
2018-02-05T20:07:45.401Z,84.46
2018-02-05T20:12:49.485Z,85.00
2018-02-05T20:15:17.379Z,84.18
2018-02-05T20:17:45.330Z,85.13
2018-02-05T20:20:13.237Z,84.28
2018-02-05T20:22:42.055Z,84.72
2018-02-05T20:25:10.011Z,84.75
2018-02-05T20:27:39.813Z,85.89
2018-02-05T20:30:07.767Z,85.70
2018-02-05T20:32:37.408Z,85.18
2018-02-05T20:35:05.390Z,85.80
2018-02-05T20:37:33.490Z,86.52
2018-02-05T20:40:01.441Z,86.16
2018-02-05T20:42:30.152Z,85.56
2018-02-05T20:44:57.988Z,86.00
2018-02-05T20:47:25.762Z,85.33
2018-02-05T20:49:54.413Z,86.21
2018-02-05T20:52:22.169Z,85.25
2018-02-05T20:54:49.972Z,85.78
2018-02-05T20:57:20.860Z,87.10
2018-02-05T20:59:52.406Z,86.94
2018-02-05T21:02:21.966Z,85.82
2018-02-05T21:04:53.412Z,84.90
2018-02-05T21:07:21.390Z,84.54
2018-02-05T21:09:49.152Z,84.62
2018-02-05T21:12:16.933Z,85.46
2018-02-05T21:14:45.583Z,85.24
2018-02-05T21:17:13.382Z,85.30
2018-02-05T21:19:42.135Z,84.71
2018-02-05T21:22:10.071Z,84.34
2018-02-05T21:24:38.938Z,84.77
2018-02-05T21:27:06.719Z,84.54
2018-02-05T21:29:35.224Z,85.67
2018-02-05T21:32:04.116Z,85.32
2018-02-05T21:34:33.570Z,86.69
2018-02-05T21:37:01.362Z,87.54
2018-02-05T21:39:33.697Z,85.95
2018-02-05T21:42:07.707Z,85.76
2018-02-05T21:44:37.734Z,85.66
2018-02-05T21:47:06.850Z,86.09
2018-02-05T21:49:35.416Z,86.01
2018-02-05T21:52:06.886Z,85.89
2018-02-05T21:54:37.157Z,86.46
2018-02-05T21:57:10.290Z,85.72
2018-02-05T21:59:40.542Z,86.87
2018-02-05T22:02:15.420Z,86.66
2018-02-05T22:04:45.240Z,85.41
2018-02-05T22:07:21.106Z,86.26
2018-02-05T22:09:56.521Z,85.39
2018-02-05T22:15:23.922Z,86.18
2018-02-05T22:19:11.185Z,85.78
2018-02-05T22:21:44.070Z,86.32
2018-02-05T22:43:25.901Z,85.67
2018-02-05T22:54:39.536Z,86.06
2018-02-05T22:57:22.525Z,84.89
2018-02-05T23:40:34.195Z,85.01
2018-02-05T23:48:11.234Z,86.22
2018-02-05T23:50:39.858Z,85.38
2018-02-05T23:53:07.520Z,84.83
2018-02-05T23:55:35.425Z,84.56
